sensor_id;sensor_type;location;lat;lon;timestamp;pressure;altitude;pressure_sealevel;temperature;humidity
63306;BME280;50735;52.060;1.248;2022-08-18T00:02:15;101243.36;;;18.65;57.49
63306;BME280;50735;52.060;1.248;2022-08-18T00:04:44;101246.83;;;18.96;57.48
63306;BME280;50735;52.060;1.248;2022-08-18T00:07:13;101250.21;;;18.53;58.54
63306;BME280;50735;52.060;1.248;2022-08-18T00:09:42;101253.70;;;18.59;58.41
63306;BME280;50735;52.060;1.248;2022-08-18T00:12:16;101256.00;;;18.60;58.16
63306;BME280;50735;52.060;1.248;2022-08-18T00:14:45;101256.94;;;18.45;58.61
63306;BME280;50735;52.060;1.248;2022-08-18T00:17:13;101254.81;;;18.37;58.21
63306;BME280;50735;52.060;1.248;2022-08-18T00:19:41;101253.67;;;18.71;58.10
63306;BME280;50735;52.060;1.248;2022-08-18T00:22:09;101253.85;;;18.25;58.67
63306;BME280;50735;52.060;1.248;2022-08-18T00:24:35;101252.80;;;18.60;58.21
63306;BME280;50735;52.060;1.248;2022-08-18T00:27:04;101255.94;;;18.25;58.50
63306;BME280;50735;52.060;1.248;2022-08-18T00:29:31;101257.37;;;18.11;59.52
63306;BME280;50735;52.060;1.248;2022-08-18T00:31:58;101251.96;;;18.09;59.60
63306;BME280;50735;52.060;1.248;2022-08-18T00:34:25;101251.92;;;17.90;59.52
63306;BME280;50735;52.060;1.248;2022-08-18T00:36:51;101248.74;;;17.54;61.24
63306;BME280;50735;52.060;1.248;2022-08-18T00:39:18;101249.68;;;17.24;61.05
63306;BME280;50735;52.060;1.248;2022-08-18T00:41:44;101241.51;;;17.80;60.01
63306;BME280;50735;52.060;1.248;2022-08-18T00:44:11;101240.30;;;17.82;60.75
63306;BME280;50735;52.060;1.248;2022-08-18T00:46:38;101245.40;;;17.14;61.41
63306;BME280;50735;52.060;1.248;2022-08-18T00:49:05;101237.53;;;17.75;60.71
63306;BME280;50735;52.060;1.248;2022-08-18T00:51:37;101238.74;;;17.32;61.38
63306;BME280;50735;52.060;1.248;2022-08-18T00:54:08;101237.49;;;17.40;61.72
63306;BME280;50735;52.060;1.248;2022-08-18T00:56:40;101236.98;;;16.87;62.36
63306;BME280;50735;52.060;1.248;2022-08-18T00:59:12;101239.36;;;17.25;61.48
63306;BME280;50735;52.060;1.248;2022-08-18T01:01:42;101235.89;;;17.81;60.56
63306;BME280;50735;52.060;1.248;2022-08-18T01:04:13;101235.43;;;17.78;60.49
63306;BME280;50735;52.060;1.248;2022-08-18T01:06:44;101233.27;;;17.72;60.63
63306;BME280;50735;52.060;1.248;2022-08-18T01:09:13;101237.89;;;17.87;59.71
63306;BME280;50735;52.060;1.248;2022-08-18T01:11:40;101236.50;;;17.93;60.05
63306;BME280;50735;52.060;1.248;2022-08-18T01:14:09;101236.05;;;17.80;59.74
63306;BME280;50735;52.060;1.248;2022-08-18T01:16:37;101233.63;;;17.40;61.45
63306;BME280;50735;52.060;1.248;2022-08-18T01:19:05;101231.72;;;17.45;60.89
63306;BME280;50735;52.060;1.248;2022-08-18T01:21:35;101229.32;;;17.45;61.22
63306;BME280;50735;52.060;1.248;2022-08-18T01:24:06;101223.11;;;17.41;61.36
63306;BME280;50735;52.060;1.248;2022-08-18T01:26:35;101215.89;;;17.66;60.79
63306;BME280;50735;52.060;1.248;2022-08-18T01:29:04;101220.74;;;17.50;61.21
63306;BME280;50735;52.060;1.248;2022-08-18T01:31:36;101219.88;;;17.32;61.50
63306;BME280;50735;52.060;1.248;2022-08-18T01:34:04;101216.46;;;17.32;61.47
63306;BME280;50735;52.060;1.248;2022-08-18T01:36:32;101216.31;;;17.40;61.07
63306;BME280;50735;52.060;1.248;2022-08-18T01:38:59;101212.24;;;17.01;62.22
63306;BME280;50735;52.060;1.248;2022-08-18T01:41:26;101215.61;;;16.75;62.99
63306;BME280;50735;52.060;1.248;2022-08-18T01:43:53;101215.81;;;17.03;61.91
63306;BME280;50735;52.060;1.248;2022-08-18T01:46:20;101215.36;;;16.92;62.33
63306;BME280;50735;52.060;1.248;2022-08-18T01:48:47;101216.27;;;16.81;62.79
63306;BME280;50735;52.060;1.248;2022-08-18T01:51:16;101213.42;;;17.09;61.56
63306;BME280;50735;52.060;1.248;2022-08-18T01:53:43;101209.95;;;17.06;61.95
63306;BME280;50735;52.060;1.248;2022-08-18T01:56:09;101209.89;;;17.20;61.66
63306;BME280;50735;52.060;1.248;2022-08-18T01:58:36;101210.94;;;17.16;61.71
63306;BME280;50735;52.060;1.248;2022-08-18T02:01:05;101214.34;;;17.06;62.06
63306;BME280;50735;52.060;1.248;2022-08-18T02:03:34;101214.89;;;16.82;62.63
63306;BME280;50735;52.060;1.248;2022-08-18T02:06:05;101216.62;;;16.87;62.14
63306;BME280;50735;52.060;1.248;2022-08-18T02:08:34;101215.97;;;17.01;62.05
63306;BME280;50735;52.060;1.248;2022-08-18T02:11:01;101221.79;;;16.77;62.85
63306;BME280;50735;52.060;1.248;2022-08-18T02:13:29;101221.30;;;16.78;62.69
63306;BME280;50735;52.060;1.248;2022-08-18T02:15:56;101216.55;;;16.86;62.60
63306;BME280;50735;52.060;1.248;2022-08-18T02:18:25;101214.10;;;16.84;62.46
63306;BME280;50735;52.060;1.248;2022-08-18T02:20:53;101220.85;;;16.20;63.99
63306;BME280;50735;52.060;1.248;2022-08-18T02:23:20;101223.28;;;16.36;63.79
63306;BME280;50735;52.060;1.248;2022-08-18T02:25:46;101222.53;;;16.70;62.85
63306;BME280;50735;52.060;1.248;2022-08-18T02:28:13;101218.28;;;16.67;62.94
63306;BME280;50735;52.060;1.248;2022-08-18T02:30:39;101214.19;;;16.80;62.43
63306;BME280;50735;52.060;1.248;2022-08-18T02:33:07;101217.36;;;17.01;61.90
63306;BME280;50735;52.060;1.248;2022-08-18T02:35:36;101221.71;;;16.64;62.78
63306;BME280;50735;52.060;1.248;2022-08-18T02:38:05;101224.93;;;16.30;63.50
63306;BME280;50735;52.060;1.248;2022-08-18T02:40:33;101223.17;;;16.37;63.45
63306;BME280;50735;52.060;1.248;2022-08-18T02:43:05;101217.37;;;16.64;62.78
63306;BME280;50735;52.060;1.248;2022-08-18T02:45:32;101208.45;;;16.53;62.98
63306;BME280;50735;52.060;1.248;2022-08-18T02:47:59;101203.65;;;16.67;62.64
63306;BME280;50735;52.060;1.248;2022-08-18T02:50:25;101197.17;;;16.61;62.72
63306;BME280;50735;52.060;1.248;2022-08-18T02:52:52;101198.60;;;16.36;63.49
63306;BME280;50735;52.060;1.248;2022-08-18T02:55:19;101201.95;;;16.61;62.72
63306;BME280;50735;52.060;1.248;2022-08-18T02:57:46;101206.06;;;16.90;61.97
63306;BME280;50735;52.060;1.248;2022-08-18T03:00:15;101209.28;;;17.03;62.13
63306;BME280;50735;52.060;1.248;2022-08-18T03:02:45;101213.52;;;17.14;61.98
63306;BME280;50735;52.060;1.248;2022-08-18T03:05:12;101220.81;;;16.78;62.23
63306;BME280;50735;52.060;1.248;2022-08-18T03:07:39;101221.07;;;16.93;61.97
63306;BME280;50735;52.060;1.248;2022-08-18T03:10:07;101221.53;;;17.05;61.67
63306;BME280;50735;52.060;1.248;2022-08-18T03:12:34;101225.00;;;17.30;60.91
63306;BME280;50735;52.060;1.248;2022-08-18T03:15:00;101221.81;;;17.36;60.93
63306;BME280;50735;52.060;1.248;2022-08-18T03:17:28;101215.90;;;17.61;60.24
63306;BME280;50735;52.060;1.248;2022-08-18T03:19:55;101211.71;;;17.84;59.42
63306;BME280;50735;52.060;1.248;2022-08-18T03:22:22;101211.07;;;17.94;59.16
63306;BME280;50735;52.060;1.248;2022-08-18T03:24:48;101213.54;;;17.71;59.60
63306;BME280;50735;52.060;1.248;2022-08-18T03:27:15;101213.08;;;17.53;60.19
63306;BME280;50735;52.060;1.248;2022-08-18T03:29:41;101211.60;;;17.35;60.46
63306;BME280;50735;52.060;1.248;2022-08-18T03:32:08;101211.91;;;17.38;60.39
63306;BME280;50735;52.060;1.248;2022-08-18T03:34:34;101219.04;;;17.52;60.01
63306;BME280;50735;52.060;1.248;2022-08-18T03:37:02;101222.39;;;17.41;59.96
63306;BME280;50735;52.060;1.248;2022-08-18T03:39:29;101224.60;;;17.57;59.85
63306;BME280;50735;52.060;1.248;2022-08-18T03:41:56;101221.61;;;17.79;59.17
63306;BME280;50735;52.060;1.248;2022-08-18T03:44:23;101220.15;;;17.96;58.91
63306;BME280;50735;52.060;1.248;2022-08-18T03:46:50;101217.67;;;18.00;58.90
63306;BME280;50735;52.060;1.248;2022-08-18T03:49:18;101214.22;;;18.05;58.60
63306;BME280;50735;52.060;1.248;2022-08-18T03:51:46;101215.73;;;18.24;58.03
63306;BME280;50735;52.060;1.248;2022-08-18T03:54:15;101217.47;;;18.39;57.59
63306;BME280;50735;52.060;1.248;2022-08-18T03:56:43;101218.57;;;18.50;57.26
63306;BME280;50735;52.060;1.248;2022-08-18T03:59:15;101221.77;;;18.58;57.00
63306;BME280;50735;52.060;1.248;2022-08-18T04:01:43;101227.25;;;18.47;56.83
63306;BME280;50735;52.060;1.248;2022-08-18T04:04:12;101230.10;;;18.29;56.87
63306;BME280;50735;52.060;1.248;2022-08-18T04:06:42;101230.72;;;18.71;56.69
63306;BME280;50735;52.060;1.248;2022-08-18T04:09:12;101232.08;;;18.74;56.70
63306;BME280;50735;52.060;1.248;2022-08-18T04:11:41;101229.83;;;18.76;56.60
63306;BME280;50735;52.060;1.248;2022-08-18T04:14:10;101230.09;;;18.80;56.59
63306;BME280;50735;52.060;1.248;2022-08-18T04:16:39;101230.27;;;18.80;56.54
63306;BME280;50735;52.060;1.248;2022-08-18T04:19:08;101233.32;;;18.68;56.40
63306;BME280;50735;52.060;1.248;2022-08-18T04:21:37;101235.82;;;18.50;56.34
63306;BME280;50735;52.060;1.248;2022-08-18T04:24:05;101233.72;;;18.95;56.21
63306;BME280;50735;52.060;1.248;2022-08-18T04:26:35;101229.46;;;18.79;56.14
63306;BME280;50735;52.060;1.248;2022-08-18T04:29:04;101228.19;;;18.81;56.09
63306;BME280;50735;52.060;1.248;2022-08-18T04:31:31;101230.03;;;18.80;56.22
63306;BME280;50735;52.060;1.248;2022-08-18T04:34:00;101231.36;;;18.93;56.23
63306;BME280;50735;52.060;1.248;2022-08-18T04:36:29;101231.60;;;18.78;56.18
63306;BME280;50735;52.060;1.248;2022-08-18T04:38:57;101231.42;;;18.81;56.04
63306;BME280;50735;52.060;1.248;2022-08-18T04:41:24;101230.98;;;18.82;56.09
63306;BME280;50735;52.060;1.248;2022-08-18T04:43:52;101233.08;;;18.71;56.31
63306;BME280;50735;52.060;1.248;2022-08-18T04:46:19;101228.01;;;18.38;56.55
63306;BME280;50735;52.060;1.248;2022-08-18T04:48:46;101232.65;;;18.78;56.37
63306;BME280;50735;52.060;1.248;2022-08-18T04:51:16;101235.63;;;18.68;56.90
63306;BME280;50735;52.060;1.248;2022-08-18T04:53:43;101236.88;;;18.50;57.43
63306;BME280;50735;52.060;1.248;2022-08-18T04:56:16;101229.79;;;18.38;57.49
63306;BME280;50735;52.060;1.248;2022-08-18T04:58:43;101224.87;;;18.23;57.86
63306;BME280;50735;52.060;1.248;2022-08-18T05:01:10;101223.63;;;18.35;57.55
63306;BME280;50735;52.060;1.248;2022-08-18T05:03:37;101225.24;;;18.08;57.76
63306;BME280;50735;52.060;1.248;2022-08-18T05:06:04;101224.45;;;18.34;57.62
63306;BME280;50735;52.060;1.248;2022-08-18T05:08:31;101223.06;;;18.28;57.98
63306;BME280;50735;52.060;1.248;2022-08-18T05:10:58;101220.59;;;18.16;57.72
63306;BME280;50735;52.060;1.248;2022-08-18T05:13:25;101218.23;;;18.25;57.98
63306;BME280;50735;52.060;1.248;2022-08-18T05:15:53;101217.42;;;18.14;58.11
63306;BME280;50735;52.060;1.248;2022-08-18T05:18:19;101217.67;;;17.95;58.55
63306;BME280;50735;52.060;1.248;2022-08-18T05:20:46;101216.69;;;17.60;59.01
63306;BME280;50735;52.060;1.248;2022-08-18T05:23:12;101210.93;;;17.88;58.79
63306;BME280;50735;52.060;1.248;2022-08-18T05:25:39;101210.01;;;18.03;58.43
63306;BME280;50735;52.060;1.248;2022-08-18T05:28:05;101210.53;;;17.96;58.66
63306;BME280;50735;52.060;1.248;2022-08-18T05:30:32;101212.89;;;17.94;58.50
63306;BME280;50735;52.060;1.248;2022-08-18T05:32:58;101215.87;;;17.60;58.97
63306;BME280;50735;52.060;1.248;2022-08-18T05:35:30;101215.29;;;17.84;58.80
63306;BME280;50735;52.060;1.248;2022-08-18T05:38:21;101219.88;;;17.96;58.98
63306;BME280;50735;52.060;1.248;2022-08-18T05:41:07;101221.12;;;17.96;58.96
63306;BME280;50735;52.060;1.248;2022-08-18T05:43:36;101217.45;;;18.15;58.52
63306;BME280;50735;52.060;1.248;2022-08-18T05:46:05;101211.33;;;18.08;58.39
63306;BME280;50735;52.060;1.248;2022-08-18T05:48:33;101207.79;;;18.00;58.68
63306;BME280;50735;52.060;1.248;2022-08-18T05:51:07;101209.05;;;17.88;58.47
63306;BME280;50735;52.060;1.248;2022-08-18T05:53:36;101212.70;;;18.10;58.34
63306;BME280;50735;52.060;1.248;2022-08-18T05:56:04;101215.41;;;17.99;58.46
63306;BME280;50735;52.060;1.248;2022-08-18T05:58:34;101215.19;;;18.11;58.42
63306;BME280;50735;52.060;1.248;2022-08-18T06:01:12;101217.80;;;18.11;57.83
63306;BME280;50735;52.060;1.248;2022-08-18T06:03:44;101216.91;;;18.49;57.67
63306;BME280;50735;52.060;1.248;2022-08-18T06:06:16;101216.49;;;18.51;57.39
63306;BME280;50735;52.060;1.248;2022-08-18T06:08:50;101214.70;;;18.57;57.07
63306;BME280;50735;52.060;1.248;2022-08-18T06:11:18;101212.50;;;18.52;57.66
63306;BME280;50735;52.060;1.248;2022-08-18T06:13:44;101208.44;;;18.42;57.70
63306;BME280;50735;52.060;1.248;2022-08-18T06:16:18;101211.68;;;18.34;58.05
63306;BME280;50735;52.060;1.248;2022-08-18T06:18:50;101212.58;;;18.25;58.74
63306;BME280;50735;52.060;1.248;2022-08-18T06:21:32;101214.67;;;17.94;58.73
63306;BME280;50735;52.060;1.248;2022-08-18T06:24:09;101210.49;;;18.29;58.40
63306;BME280;50735;52.060;1.248;2022-08-18T06:26:44;101207.97;;;18.01;58.54
63306;BME280;50735;52.060;1.248;2022-08-18T06:29:24;101205.09;;;18.29;58.24
63306;BME280;50735;52.060;1.248;2022-08-18T06:32:02;101206.33;;;18.44;58.34
63306;BME280;50735;52.060;1.248;2022-08-18T06:34:36;101210.65;;;18.69;57.45
63306;BME280;50735;52.060;1.248;2022-08-18T06:37:10;101213.89;;;18.67;57.42
63306;BME280;50735;52.060;1.248;2022-08-18T06:39:44;101214.47;;;18.87;57.29
63306;BME280;50735;52.060;1.248;2022-08-18T06:42:11;101218.82;;;18.78;57.18
63306;BME280;50735;52.060;1.248;2022-08-18T06:44:43;101219.04;;;18.44;57.58
63306;BME280;50735;52.060;1.248;2022-08-18T06:47:15;101215.95;;;18.60;57.15
63306;BME280;50735;52.060;1.248;2022-08-18T06:49:49;101216.92;;;18.18;58.16
63306;BME280;50735;52.060;1.248;2022-08-18T06:52:21;101216.20;;;18.25;58.17
63306;BME280;50735;52.060;1.248;2022-08-18T06:54:49;101216.66;;;18.50;57.38
63306;BME280;50735;52.060;1.248;2022-08-18T06:57:24;101218.82;;;18.66;57.33
63306;BME280;50735;52.060;1.248;2022-08-18T06:59:58;101213.98;;;18.76;57.27
63306;BME280;50735;52.060;1.248;2022-08-18T07:02:33;101215.10;;;18.90;56.71
63306;BME280;50735;52.060;1.248;2022-08-18T07:05:05;101216.82;;;19.15;56.50
63306;BME280;50735;52.060;1.248;2022-08-18T07:07:35;101222.01;;;19.02;56.61
63306;BME280;50735;52.060;1.248;2022-08-18T07:10:04;101221.47;;;19.45;55.81
63306;BME280;50735;52.060;1.248;2022-08-18T07:12:32;101220.84;;;19.42;55.04
63306;BME280;50735;52.060;1.248;2022-08-18T07:15:02;101217.85;;;19.35;54.98
63306;BME280;50735;52.060;1.248;2022-08-18T07:17:30;101216.94;;;19.59;55.16
63306;BME280;50735;52.060;1.248;2022-08-18T07:20:00;101213.20;;;19.38;55.01
63306;BME280;50735;52.060;1.248;2022-08-18T07:22:28;101208.81;;;19.33;55.20
63306;BME280;50735;52.060;1.248;2022-08-18T07:24:57;101205.13;;;19.27;54.90
63306;BME280;50735;52.060;1.248;2022-08-18T07:27:44;101206.69;;;19.21;55.04
63306;BME280;50735;52.060;1.248;2022-08-18T07:30:14;101208.70;;;19.29;55.07
63306;BME280;50735;52.060;1.248;2022-08-18T07:32:55;101211.71;;;19.35;55.06
63306;BME280;50735;52.060;1.248;2022-08-18T07:35:31;101215.66;;;19.49;54.98
63306;BME280;50735;52.060;1.248;2022-08-18T07:38:03;101218.70;;;19.47;54.44
63306;BME280;50735;52.060;1.248;2022-08-18T07:40:37;101218.01;;;19.57;54.97
63306;BME280;50735;52.060;1.248;2022-08-18T07:43:10;101218.75;;;19.38;54.29
63306;BME280;50735;52.060;1.248;2022-08-18T07:45:43;101221.31;;;19.34;55.03
63306;BME280;50735;52.060;1.248;2022-08-18T07:48:15;101216.74;;;19.81;54.19
63306;BME280;50735;52.060;1.248;2022-08-18T07:50:49;101224.77;;;20.04;53.41
63306;BME280;50735;52.060;1.248;2022-08-18T07:53:29;101227.64;;;20.15;52.65
63306;BME280;50735;52.060;1.248;2022-08-18T07:56:01;101228.78;;;20.01;53.59
63306;BME280;50735;52.060;1.248;2022-08-18T07:58:35;101227.28;;;19.78;53.34
63306;BME280;50735;52.060;1.248;2022-08-18T08:01:12;101231.27;;;20.16;53.03
63306;BME280;50735;52.060;1.248;2022-08-18T08:03:49;101229.48;;;19.95;52.91
63306;BME280;50735;52.060;1.248;2022-08-18T08:06:24;101230.51;;;19.95;52.64
63306;BME280;50735;52.060;1.248;2022-08-18T08:09:02;101222.07;;;20.31;52.28
63306;BME280;50735;52.060;1.248;2022-08-18T08:11:40;101219.10;;;20.88;51.71
63306;BME280;50735;52.060;1.248;2022-08-18T08:14:22;101224.47;;;20.41;53.18
63306;BME280;50735;52.060;1.248;2022-08-18T08:16:58;101228.77;;;20.20;53.33
63306;BME280;50735;52.060;1.248;2022-08-18T08:19:46;101229.31;;;19.52;54.29
63306;BME280;50735;52.060;1.248;2022-08-18T08:22:20;101231.48;;;19.67;53.89
63306;BME280;50735;52.060;1.248;2022-08-18T08:24:54;101232.71;;;19.71;53.22
63306;BME280;50735;52.060;1.248;2022-08-18T08:27:43;101236.74;;;20.02;52.94
63306;BME280;50735;52.060;1.248;2022-08-18T08:30:13;101235.93;;;20.56;52.24
63306;BME280;50735;52.060;1.248;2022-08-18T08:32:51;101235.55;;;20.65;51.73
63306;BME280;50735;52.060;1.248;2022-08-18T08:35:29;101236.53;;;20.68;51.32
63306;BME280;50735;52.060;1.248;2022-08-18T08:38:02;101235.84;;;20.58;50.93
63306;BME280;50735;52.060;1.248;2022-08-18T08:40:43;101237.11;;;20.77;50.50
63306;BME280;50735;52.060;1.248;2022-08-18T08:43:14;101235.18;;;21.22;49.00
63306;BME280;50735;52.060;1.248;2022-08-18T08:45:49;101231.92;;;20.90;49.49
63306;BME280;50735;52.060;1.248;2022-08-18T08:48:21;101228.33;;;21.07;49.35
63306;BME280;50735;52.060;1.248;2022-08-18T08:50:54;101225.09;;;21.56;48.46
63306;BME280;50735;52.060;1.248;2022-08-18T08:53:25;101227.17;;;21.35;48.91
63306;BME280;50735;52.060;1.248;2022-08-18T08:55:58;101222.58;;;21.64;48.50
63306;BME280;50735;52.060;1.248;2022-08-18T08:58:30;101222.91;;;21.59;48.52
63306;BME280;50735;52.060;1.248;2022-08-18T09:01:01;101223.10;;;21.81;47.19
63306;BME280;50735;52.060;1.248;2022-08-18T09:03:36;101224.89;;;22.13;45.95
63306;BME280;50735;52.060;1.248;2022-08-18T09:06:18;101223.93;;;21.74;46.85
63306;BME280;50735;52.060;1.248;2022-08-18T09:09:00;101223.07;;;22.24;46.35
63306;BME280;50735;52.060;1.248;2022-08-18T09:11:48;101227.55;;;22.23;45.89
63306;BME280;50735;52.060;1.248;2022-08-18T09:14:43;101231.79;;;21.99;46.30
63306;BME280;50735;52.060;1.248;2022-08-18T09:17:27;101235.56;;;21.85;46.72
63306;BME280;50735;52.060;1.248;2022-08-18T09:20:17;101235.98;;;21.94;46.63
63306;BME280;50735;52.060;1.248;2022-08-18T09:22:49;101231.28;;;22.08;46.60
63306;BME280;50735;52.060;1.248;2022-08-18T09:25:45;101230.44;;;21.94;46.54
63306;BME280;50735;52.060;1.248;2022-08-18T09:28:15;101232.70;;;21.88;46.75
63306;BME280;50735;52.060;1.248;2022-08-18T09:30:45;101231.37;;;21.82;46.98
63306;BME280;50735;52.060;1.248;2022-08-18T09:33:19;101233.90;;;21.78;47.28
63306;BME280;50735;52.060;1.248;2022-08-18T09:35:59;101234.81;;;21.78;49.32
63306;BME280;50735;52.060;1.248;2022-08-18T09:38:31;101240.50;;;20.98;52.39
63306;BME280;50735;52.060;1.248;2022-08-18T09:41:06;101237.92;;;21.32;53.64
63306;BME280;50735;52.060;1.248;2022-08-18T09:43:36;101233.88;;;21.17;52.51
63306;BME280;50735;52.060;1.248;2022-08-18T09:46:06;101230.55;;;21.09;52.42
63306;BME280;50735;52.060;1.248;2022-08-18T09:48:34;101230.66;;;21.30;52.35
63306;BME280;50735;52.060;1.248;2022-08-18T09:51:36;101229.90;;;21.56;52.20
63306;BME280;50735;52.060;1.248;2022-08-18T09:54:10;101227.54;;;21.04;52.45
63306;BME280;50735;52.060;1.248;2022-08-18T09:57:43;101225.26;;;21.29;52.71
63306;BME280;50735;52.060;1.248;2022-08-18T10:00:29;101220.65;;;21.26;52.49
63306;BME280;50735;52.060;1.248;2022-08-18T10:03:09;101219.91;;;21.09;52.51
63306;BME280;50735;52.060;1.248;2022-08-18T10:05:39;101221.20;;;21.13;53.34
63306;BME280;50735;52.060;1.248;2022-08-18T10:08:56;101217.62;;;20.73;53.08
63306;BME280;50735;52.060;1.248;2022-08-18T10:11:38;101211.46;;;20.71;53.41
63306;BME280;50735;52.060;1.248;2022-08-18T10:14:28;101215.27;;;20.85;53.51
63306;BME280;50735;52.060;1.248;2022-08-18T10:17:07;101215.53;;;20.49;54.75
63306;BME280;50735;52.060;1.248;2022-08-18T10:19:50;101214.29;;;20.20;54.38
63306;BME280;50735;52.060;1.248;2022-08-18T10:22:42;101209.66;;;20.18;54.50
63306;BME280;50735;52.060;1.248;2022-08-18T10:25:10;101206.73;;;20.02;54.90
63306;BME280;50735;52.060;1.248;2022-08-18T10:27:51;101206.42;;;20.19;54.05
63306;BME280;50735;52.060;1.248;2022-08-18T10:31:26;101208.00;;;20.66;54.56
63306;BME280;50735;52.060;1.248;2022-08-18T10:34:02;101206.49;;;20.83;53.80
63306;BME280;50735;52.060;1.248;2022-08-18T10:36:38;101203.81;;;20.86;52.78
63306;BME280;50735;52.060;1.248;2022-08-18T10:39:10;101204.56;;;19.84;55.19
63306;BME280;50735;52.060;1.248;2022-08-18T10:41:49;101202.13;;;20.11;54.43
63306;BME280;50735;52.060;1.248;2022-08-18T10:44:21;101205.50;;;20.64;53.91
63306;BME280;50735;52.060;1.248;2022-08-18T10:46:49;101200.88;;;20.95;53.31
63306;BME280;50735;52.060;1.248;2022-08-18T10:49:21;101197.93;;;20.51;52.96
63306;BME280;50735;52.060;1.248;2022-08-18T10:52:14;101196.42;;;20.51;53.25
63306;BME280;50735;52.060;1.248;2022-08-18T10:55:01;101196.38;;;20.30;53.67
63306;BME280;50735;52.060;1.248;2022-08-18T10:57:35;101202.29;;;19.88;54.27
63306;BME280;50735;52.060;1.248;2022-08-18T11:00:12;101201.91;;;19.47;55.44
63306;BME280;50735;52.060;1.248;2022-08-18T11:02:51;101203.76;;;19.53;56.20
63306;BME280;50735;52.060;1.248;2022-08-18T11:05:25;101200.73;;;19.46;56.45
63306;BME280;50735;52.060;1.248;2022-08-18T11:07:57;101200.73;;;19.97;55.73
63306;BME280;50735;52.060;1.248;2022-08-18T11:10:35;101196.36;;;20.18;56.36
63306;BME280;50735;52.060;1.248;2022-08-18T11:13:09;101196.40;;;20.17;55.61
63306;BME280;50735;52.060;1.248;2022-08-18T11:15:48;101194.60;;;19.95;56.90
63306;BME280;50735;52.060;1.248;2022-08-18T11:18:29;101191.55;;;20.20;56.60
63306;BME280;50735;52.060;1.248;2022-08-18T11:21:22;101187.46;;;20.11;56.76
63306;BME280;50735;52.060;1.248;2022-08-18T11:24:02;101178.70;;;20.62;56.41
63306;BME280;50735;52.060;1.248;2022-08-18T11:26:30;101173.15;;;20.89;56.64
63306;BME280;50735;52.060;1.248;2022-08-18T11:28:58;101171.45;;;21.01;58.02
63306;BME280;50735;52.060;1.248;2022-08-18T11:31:24;101174.71;;;21.80;57.53
63306;BME280;50735;52.060;1.248;2022-08-18T11:33:51;101179.35;;;22.59;53.82
63306;BME280;50735;52.060;1.248;2022-08-18T11:36:28;101185.38;;;22.96;53.36
63306;BME280;50735;52.060;1.248;2022-08-18T11:38:55;101180.12;;;23.38;51.26
63306;BME280;50735;52.060;1.248;2022-08-18T11:41:25;101172.91;;;23.18;50.92
63306;BME280;50735;52.060;1.248;2022-08-18T11:43:55;101165.10;;;23.36;50.01
63306;BME280;50735;52.060;1.248;2022-08-18T11:46:27;101164.00;;;23.10;49.80
63306;BME280;50735;52.060;1.248;2022-08-18T11:48:55;101158.59;;;22.95;50.28
63306;BME280;50735;52.060;1.248;2022-08-18T11:51:24;101159.31;;;22.63;50.62
63306;BME280;50735;52.060;1.248;2022-08-18T11:53:54;101161.45;;;22.13;51.86
63306;BME280;50735;52.060;1.248;2022-08-18T11:56:25;101165.29;;;22.10;51.87
63306;BME280;50735;52.060;1.248;2022-08-18T11:58:55;101167.35;;;22.12;51.66
63306;BME280;50735;52.060;1.248;2022-08-18T12:01:33;101168.62;;;22.13;52.34
63306;BME280;50735;52.060;1.248;2022-08-18T12:04:12;101171.20;;;21.69;52.39
63306;BME280;50735;52.060;1.248;2022-08-18T12:06:58;101168.53;;;21.15;52.72
63306;BME280;50735;52.060;1.248;2022-08-18T12:09:38;101168.96;;;20.94;51.89
63306;BME280;50735;52.060;1.248;2022-08-18T12:12:14;101171.94;;;21.07;52.55
63306;BME280;50735;52.060;1.248;2022-08-18T12:14:53;101173.47;;;21.02;53.36
63306;BME280;50735;52.060;1.248;2022-08-18T12:17:20;101177.41;;;20.89;54.41
63306;BME280;50735;52.060;1.248;2022-08-18T12:19:48;101173.23;;;20.56;53.74
63306;BME280;50735;52.060;1.248;2022-08-18T12:22:18;101173.09;;;20.62;54.44
63306;BME280;50735;52.060;1.248;2022-08-18T12:24:45;101173.08;;;20.60;54.29
63306;BME280;50735;52.060;1.248;2022-08-18T12:27:13;101170.75;;;20.70;54.09
63306;BME280;50735;52.060;1.248;2022-08-18T12:29:41;101170.98;;;20.79;54.53
63306;BME280;50735;52.060;1.248;2022-08-18T12:32:09;101169.44;;;21.26;54.71
63306;BME280;50735;52.060;1.248;2022-08-18T12:34:36;101162.35;;;21.15;54.83
63306;BME280;50735;52.060;1.248;2022-08-18T12:37:07;101153.71;;;21.26;54.66
63306;BME280;50735;52.060;1.248;2022-08-18T12:39:35;101143.73;;;21.24;55.36
63306;BME280;50735;52.060;1.248;2022-08-18T12:42:02;101137.69;;;21.62;54.78
63306;BME280;50735;52.060;1.248;2022-08-18T12:44:29;101132.52;;;21.67;54.61
63306;BME280;50735;52.060;1.248;2022-08-18T12:46:56;101128.48;;;21.87;54.29
63306;BME280;50735;52.060;1.248;2022-08-18T12:49:24;101126.50;;;22.07;52.10
63306;BME280;50735;52.060;1.248;2022-08-18T12:51:51;101126.13;;;21.91;52.37
63306;BME280;50735;52.060;1.248;2022-08-18T12:54:18;101126.95;;;21.97;52.65
63306;BME280;50735;52.060;1.248;2022-08-18T12:56:48;101128.61;;;21.91;52.42
63306;BME280;50735;52.060;1.248;2022-08-18T12:59:16;101128.54;;;21.96;52.95
63306;BME280;50735;52.060;1.248;2022-08-18T13:01:43;101125.99;;;21.88;53.64
63306;BME280;50735;52.060;1.248;2022-08-18T13:04:10;101125.97;;;21.93;54.44
63306;BME280;50735;52.060;1.248;2022-08-18T13:06:39;101122.27;;;21.64;54.31
63306;BME280;50735;52.060;1.248;2022-08-18T13:09:06;101117.49;;;21.89;53.37
63306;BME280;50735;52.060;1.248;2022-08-18T13:11:34;101112.34;;;21.56;53.76
63306;BME280;50735;52.060;1.248;2022-08-18T13:14:01;101113.62;;;21.85;53.22
63306;BME280;50735;52.060;1.248;2022-08-18T13:16:30;101110.03;;;22.28;50.96